sensor_id;sensor_type;location;lat;lon;timestamp;P1;durP1;ratioP1;P2;durP2;ratioP2
4278;SDS011;2153;47.744;10.580;2022-11-21T00:01:14;9.70;;;1.20;;
4278;SDS011;2153;47.744;10.580;2022-11-21T00:03:43;9.60;;;1.40;;
4278;SDS011;2153;47.744;10.580;2022-11-21T00:06:10;12.03;;;1.40;;
4278;SDS011;2153;47.744;10.580;2022-11-21T00:08:38;11.03;;;1.20;;
4278;SDS011;2153;47.744;10.580;2022-11-21T00:11:04;9.53;;;1.47;;
4278;SDS011;2153;47.744;10.580;2022-11-21T00:13:31;9.50;;;1.23;;
4278;SDS011;2153;47.744;10.580;2022-11-21T00:16:01;9.97;;;1.13;;
4278;SDS011;2153;47.744;10.580;2022-11-21T00:18:29;9.57;;;1.20;;
4278;SDS011;2153;47.744;10.580;2022-11-21T00:20:56;11.33;;;1.70;;
4278;SDS011;2153;47.744;10.580;2022-11-21T00:23:23;9.67;;;1.17;;
4278;SDS011;2153;47.744;10.580;2022-11-21T00:25:53;9.37;;;1.23;;
4278;SDS011;2153;47.744;10.580;2022-11-21T00:28:20;10.37;;;1.40;;
4278;SDS011;2153;47.744;10.580;2022-11-21T00:30:47;10.10;;;1.20;;
4278;SDS011;2153;47.744;10.580;2022-11-21T00:33:14;10.90;;;1.40;;
4278;SDS011;2153;47.744;10.580;2022-11-21T00:35:40;9.40;;;1.20;;
4278;SDS011;2153;47.744;10.580;2022-11-21T00:38:07;9.97;;;1.30;;
4278;SDS011;2153;47.744;10.580;2022-11-21T00:40:34;9.90;;;1.37;;
4278;SDS011;2153;47.744;10.580;2022-11-21T00:43:02;10.07;;;1.40;;
4278;SDS011;2153;47.744;10.580;2022-11-21T00:45:29;14.40;;;1.50;;
4278;SDS011;2153;47.744;10.580;2022-11-21T00:47:56;9.93;;;1.20;;
4278;SDS011;2153;47.744;10.580;2022-11-21T00:50:22;9.80;;;1.40;;
4278;SDS011;2153;47.744;10.580;2022-11-21T00:52:53;9.60;;;1.40;;
4278;SDS011;2153;47.744;10.580;2022-11-21T00:55:21;9.60;;;1.37;;
4278;SDS011;2153;47.744;10.580;2022-11-21T00:57:48;9.17;;;1.20;;
4278;SDS011;2153;47.744;10.580;2022-11-21T01:00:16;9.83;;;1.43;;
4278;SDS011;2153;47.744;10.580;2022-11-21T01:02:43;9.60;;;1.30;;
4278;SDS011;2153;47.744;10.580;2022-11-21T01:05:10;10.03;;;1.23;;
4278;SDS011;2153;47.744;10.580;2022-11-21T01:07:37;11.10;;;1.37;;
4278;SDS011;2153;47.744;10.580;2022-11-21T01:10:04;9.97;;;1.40;;
4278;SDS011;2153;47.744;10.580;2022-11-21T01:12:32;9.87;;;1.00;;
4278;SDS011;2153;47.744;10.580;2022-11-21T01:14:58;9.73;;;1.23;;
4278;SDS011;2153;47.744;10.580;2022-11-21T01:17:26;10.27;;;1.20;;
4278;SDS011;2153;47.744;10.580;2022-11-21T01:19:53;10.60;;;1.40;;
4278;SDS011;2153;47.744;10.580;2022-11-21T01:22:20;9.60;;;1.30;;
4278;SDS011;2153;47.744;10.580;2022-11-21T01:24:47;9.87;;;1.37;;
4278;SDS011;2153;47.744;10.580;2022-11-21T01:27:14;10.43;;;1.30;;
4278;SDS011;2153;47.744;10.580;2022-11-21T01:29:40;9.67;;;1.37;;
4278;SDS011;2153;47.744;10.580;2022-11-21T01:32:07;9.40;;;1.20;;
4278;SDS011;2153;47.744;10.580;2022-11-21T01:34:35;9.50;;;1.13;;
4278;SDS011;2153;47.744;10.580;2022-11-21T01:37:02;10.77;;;1.10;;
4278;SDS011;2153;47.744;10.580;2022-11-21T01:39:29;12.73;;;1.90;;
4278;SDS011;2153;47.744;10.580;2022-11-21T01:41:56;9.80;;;1.00;;
4278;SDS011;2153;47.744;10.580;2022-11-21T01:44:23;11.00;;;1.33;;
4278;SDS011;2153;47.744;10.580;2022-11-21T01:46:52;13.50;;;1.10;;
4278;SDS011;2153;47.744;10.580;2022-11-21T01:49:20;10.03;;;1.10;;
4278;SDS011;2153;47.744;10.580;2022-11-21T01:51:51;10.40;;;1.27;;
4278;SDS011;2153;47.744;10.580;2022-11-21T01:54:23;11.03;;;1.43;;
4278;SDS011;2153;47.744;10.580;2022-11-21T01:56:55;10.40;;;1.40;;
4278;SDS011;2153;47.744;10.580;2022-11-21T01:59:26;11.10;;;1.53;;
4278;SDS011;2153;47.744;10.580;2022-11-21T02:01:56;9.70;;;1.20;;
4278;SDS011;2153;47.744;10.580;2022-11-21T02:04:27;10.17;;;1.27;;
4278;SDS011;2153;47.744;10.580;2022-11-21T02:06:58;10.87;;;1.50;;
4278;SDS011;2153;47.744;10.580;2022-11-21T02:09:27;10.10;;;1.30;;
4278;SDS011;2153;47.744;10.580;2022-11-21T02:11:57;9.20;;;1.00;;
4278;SDS011;2153;47.744;10.580;2022-11-21T02:14:27;13.53;;;1.20;;
4278;SDS011;2153;47.744;10.580;2022-11-21T02:16:54;11.60;;;1.40;;
4278;SDS011;2153;47.744;10.580;2022-11-21T02:19:26;10.43;;;1.37;;
4278;SDS011;2153;47.744;10.580;2022-11-21T02:22:01;10.73;;;1.27;;
4278;SDS011;2153;47.744;10.580;2022-11-21T02:24:32;11.87;;;1.60;;
4278;SDS011;2153;47.744;10.580;2022-11-21T02:27:09;10.60;;;1.30;;
4278;SDS011;2153;47.744;10.580;2022-11-21T02:29:36;13.93;;;1.67;;
4278;SDS011;2153;47.744;10.580;2022-11-21T02:32:04;12.07;;;1.40;;
4278;SDS011;2153;47.744;10.580;2022-11-21T02:34:32;11.80;;;1.40;;
4278;SDS011;2153;47.744;10.580;2022-11-21T02:36:59;11.10;;;1.67;;
4278;SDS011;2153;47.744;10.580;2022-11-21T02:39:28;12.07;;;1.30;;
4278;SDS011;2153;47.744;10.580;2022-11-21T02:41:59;12.20;;;1.47;;
4278;SDS011;2153;47.744;10.580;2022-11-21T02:44:36;9.40;;;1.20;;
4278;SDS011;2153;47.744;10.580;2022-11-21T02:47:08;12.63;;;1.23;;
4278;SDS011;2153;47.744;10.580;2022-11-21T02:49:37;11.50;;;1.40;;
4278;SDS011;2153;47.744;10.580;2022-11-21T02:52:07;11.67;;;1.40;;
4278;SDS011;2153;47.744;10.580;2022-11-21T02:54:34;11.60;;;1.30;;
4278;SDS011;2153;47.744;10.580;2022-11-21T02:57:01;9.70;;;1.10;;
4278;SDS011;2153;47.744;10.580;2022-11-21T02:59:27;12.30;;;1.20;;
4278;SDS011;2153;47.744;10.580;2022-11-21T03:01:55;13.03;;;1.50;;
4278;SDS011;2153;47.744;10.580;2022-11-21T03:04:23;9.83;;;1.40;;
4278;SDS011;2153;47.744;10.580;2022-11-21T03:06:50;12.60;;;1.17;;
4278;SDS011;2153;47.744;10.580;2022-11-21T03:09:17;12.00;;;1.40;;
4278;SDS011;2153;47.744;10.580;2022-11-21T03:11:44;11.50;;;1.47;;
4278;SDS011;2153;47.744;10.580;2022-11-21T03:14:11;9.80;;;1.10;;
4278;SDS011;2153;47.744;10.580;2022-11-21T03:16:37;10.77;;;1.30;;
4278;SDS011;2153;47.744;10.580;2022-11-21T03:19:06;10.83;;;1.30;;
4278;SDS011;2153;47.744;10.580;2022-11-21T03:21:32;11.13;;;1.30;;
4278;SDS011;2153;47.744;10.580;2022-11-21T03:23:59;10.33;;;1.00;;
4278;SDS011;2153;47.744;10.580;2022-11-21T03:26:26;11.37;;;1.10;;
4278;SDS011;2153;47.744;10.580;2022-11-21T03:28:53;11.97;;;1.17;;
4278;SDS011;2153;47.744;10.580;2022-11-21T03:31:20;18.70;;;1.70;;
4278;SDS011;2153;47.744;10.580;2022-11-21T03:33:47;16.07;;;1.10;;
4278;SDS011;2153;47.744;10.580;2022-11-21T03:36:15;11.00;;;1.23;;
4278;SDS011;2153;47.744;10.580;2022-11-21T03:38:42;11.00;;;1.70;;
4278;SDS011;2153;47.744;10.580;2022-11-21T03:41:08;11.03;;;1.20;;
4278;SDS011;2153;47.744;10.580;2022-11-21T03:43:49;15.43;;;1.13;;
4278;SDS011;2153;47.744;10.580;2022-11-21T03:46:16;11.33;;;1.67;;
4278;SDS011;2153;47.744;10.580;2022-11-21T03:48:43;11.33;;;1.37;;
4278;SDS011;2153;47.744;10.580;2022-11-21T03:51:09;9.70;;;1.00;;
4278;SDS011;2153;47.744;10.580;2022-11-21T03:53:38;10.60;;;1.10;;
4278;SDS011;2153;47.744;10.580;2022-11-21T03:56:04;9.87;;;1.00;;
4278;SDS011;2153;47.744;10.580;2022-11-21T03:58:31;12.93;;;0.90;;
4278;SDS011;2153;47.744;10.580;2022-11-21T04:00:58;13.73;;;1.20;;
4278;SDS011;2153;47.744;10.580;2022-11-21T04:03:25;9.30;;;1.00;;
4278;SDS011;2153;47.744;10.580;2022-11-21T04:05:52;11.20;;;1.43;;
4278;SDS011;2153;47.744;10.580;2022-11-21T04:08:18;11.63;;;1.00;;
4278;SDS011;2153;47.744;10.580;2022-11-21T04:10:47;10.87;;;1.00;;
4278;SDS011;2153;47.744;10.580;2022-11-21T04:13:14;9.53;;;1.00;;
4278;SDS011;2153;47.744;10.580;2022-11-21T04:15:41;13.13;;;2.07;;
4278;SDS011;2153;47.744;10.580;2022-11-21T04:18:08;13.77;;;2.10;;
4278;SDS011;2153;47.744;10.580;2022-11-21T04:20:36;9.40;;;1.03;;
4278;SDS011;2153;47.744;10.580;2022-11-21T04:23:03;10.80;;;1.43;;
4278;SDS011;2153;47.744;10.580;2022-11-21T04:25:30;10.70;;;1.60;;
4278;SDS011;2153;47.744;10.580;2022-11-21T04:28:00;10.80;;;1.00;;
4278;SDS011;2153;47.744;10.580;2022-11-21T04:30:28;9.23;;;1.00;;
4278;SDS011;2153;47.744;10.580;2022-11-21T04:32:56;10.63;;;0.97;;
4278;SDS011;2153;47.744;10.580;2022-11-21T04:35:23;12.10;;;0.90;;
4278;SDS011;2153;47.744;10.580;2022-11-21T04:37:50;9.70;;;0.70;;
4278;SDS011;2153;47.744;10.580;2022-11-21T04:40:17;10.50;;;1.10;;
4278;SDS011;2153;47.744;10.580;2022-11-21T04:42:45;10.90;;;1.20;;
4278;SDS011;2153;47.744;10.580;2022-11-21T04:45:14;9.97;;;1.07;;
4278;SDS011;2153;47.744;10.580;2022-11-21T04:47:42;11.00;;;0.90;;
4278;SDS011;2153;47.744;10.580;2022-11-21T04:50:12;8.93;;;0.97;;
4278;SDS011;2153;47.744;10.580;2022-11-21T04:52:47;12.17;;;1.17;;
4278;SDS011;2153;47.744;10.580;2022-11-21T04:55:15;10.03;;;0.90;;
4278;SDS011;2153;47.744;10.580;2022-11-21T04:57:42;10.73;;;1.00;;
4278;SDS011;2153;47.744;10.580;2022-11-21T05:00:09;9.10;;;0.83;;
4278;SDS011;2153;47.744;10.580;2022-11-21T05:02:38;9.67;;;1.20;;
4278;SDS011;2153;47.744;10.580;2022-11-21T05:05:05;9.67;;;0.90;;
4278;SDS011;2153;47.744;10.580;2022-11-21T05:07:32;10.20;;;1.10;;
4278;SDS011;2153;47.744;10.580;2022-11-21T05:09:59;9.97;;;1.33;;
4278;SDS011;2153;47.744;10.580;2022-11-21T05:12:26;9.00;;;1.00;;
4278;SDS011;2153;47.744;10.580;2022-11-21T05:15:10;9.30;;;0.90;;
4278;SDS011;2153;47.744;10.580;2022-11-21T05:17:38;10.40;;;1.70;;
4278;SDS011;2153;47.744;10.580;2022-11-21T05:20:05;10.40;;;1.00;;
4278;SDS011;2153;47.744;10.580;2022-11-21T05:22:33;12.17;;;1.30;;
4278;SDS011;2153;47.744;10.580;2022-11-21T05:25:00;10.00;;;1.40;;
4278;SDS011;2153;47.744;10.580;2022-11-21T05:27:26;10.40;;;1.03;;
4278;SDS011;2153;47.744;10.580;2022-11-21T05:29:53;10.40;;;1.40;;
4278;SDS011;2153;47.744;10.580;2022-11-21T05:32:20;10.23;;;1.50;;
4278;SDS011;2153;47.744;10.580;2022-11-21T05:34:48;9.67;;;1.20;;
4278;SDS011;2153;47.744;10.580;2022-11-21T05:37:15;9.33;;;1.20;;
4278;SDS011;2153;47.744;10.580;2022-11-21T05:39:42;9.17;;;0.87;;
4278;SDS011;2153;47.744;10.580;2022-11-21T05:42:09;11.87;;;0.80;;
4278;SDS011;2153;47.744;10.580;2022-11-21T05:44:36;10.20;;;0.97;;
4278;SDS011;2153;47.744;10.580;2022-11-21T05:47:02;10.77;;;1.50;;
4278;SDS011;2153;47.744;10.580;2022-11-21T05:49:29;9.17;;;0.87;;
4278;SDS011;2153;47.744;10.580;2022-11-21T05:51:57;10.07;;;1.00;;
4278;SDS011;2153;47.744;10.580;2022-11-21T05:54:23;10.27;;;0.90;;
4278;SDS011;2153;47.744;10.580;2022-11-21T05:56:50;9.20;;;0.70;;
4278;SDS011;2153;47.744;10.580;2022-11-21T05:59:17;8.80;;;0.80;;
4278;SDS011;2153;47.744;10.580;2022-11-21T06:01:44;9.00;;;0.77;;
4278;SDS011;2153;47.744;10.580;2022-11-21T06:04:28;8.83;;;0.70;;
4278;SDS011;2153;47.744;10.580;2022-11-21T06:06:56;8.93;;;0.70;;
4278;SDS011;2153;47.744;10.580;2022-11-21T06:09:23;8.80;;;0.80;;
4278;SDS011;2153;47.744;10.580;2022-11-21T06:11:50;9.40;;;0.90;;
4278;SDS011;2153;47.744;10.580;2022-11-21T06:14:17;8.90;;;0.80;;
4278;SDS011;2153;47.744;10.580;2022-11-21T06:16:44;8.90;;;0.80;;
4278;SDS011;2153;47.744;10.580;2022-11-21T06:19:10;9.27;;;1.10;;
4278;SDS011;2153;47.744;10.580;2022-11-21T06:21:37;9.03;;;1.00;;
4278;SDS011;2153;47.744;10.580;2022-11-21T06:24:06;10.60;;;1.20;;
4278;SDS011;2153;47.744;10.580;2022-11-21T06:26:33;11.03;;;1.00;;
4278;SDS011;2153;47.744;10.580;2022-11-21T06:29:00;9.50;;;1.27;;
4278;SDS011;2153;47.744;10.580;2022-11-21T06:31:27;11.07;;;1.70;;
4278;SDS011;2153;47.744;10.580;2022-11-21T06:33:55;12.73;;;1.40;;
4278;SDS011;2153;47.744;10.580;2022-11-21T06:36:23;9.53;;;1.23;;
4278;SDS011;2153;47.744;10.580;2022-11-21T06:38:51;9.37;;;1.07;;
4278;SDS011;2153;47.744;10.580;2022-11-21T06:41:21;9.40;;;1.00;;
4278;SDS011;2153;47.744;10.580;2022-11-21T06:43:48;9.30;;;1.00;;
4278;SDS011;2153;47.744;10.580;2022-11-21T06:46:15;11.93;;;1.33;;
4278;SDS011;2153;47.744;10.580;2022-11-21T06:48:42;9.47;;;1.20;;
4278;SDS011;2153;47.744;10.580;2022-11-21T06:51:11;9.50;;;1.30;;
4278;SDS011;2153;47.744;10.580;2022-11-21T06:53:40;10.10;;;1.10;;
4278;SDS011;2153;47.744;10.580;2022-11-21T06:56:07;9.03;;;0.97;;
4278;SDS011;2153;47.744;10.580;2022-11-21T06:58:36;10.93;;;2.80;;
4278;SDS011;2153;47.744;10.580;2022-11-21T07:01:03;10.53;;;1.67;;
4278;SDS011;2153;47.744;10.580;2022-11-21T07:03:30;10.83;;;1.23;;
4278;SDS011;2153;47.744;10.580;2022-11-21T07:05:58;11.40;;;1.50;;
4278;SDS011;2153;47.744;10.580;2022-11-21T07:08:25;10.43;;;1.43;;
4278;SDS011;2153;47.744;10.580;2022-11-21T07:10:52;8.97;;;0.70;;
4278;SDS011;2153;47.744;10.580;2022-11-21T07:13:19;10.40;;;0.90;;
4278;SDS011;2153;47.744;10.580;2022-11-21T07:15:47;9.10;;;0.80;;
4278;SDS011;2153;47.744;10.580;2022-11-21T07:18:15;9.13;;;0.80;;
4278;SDS011;2153;47.744;10.580;2022-11-21T07:20:42;9.33;;;0.90;;
4278;SDS011;2153;47.744;10.580;2022-11-21T07:23:09;9.50;;;1.00;;
4278;SDS011;2153;47.744;10.580;2022-11-21T07:25:36;9.97;;;1.03;;
4278;SDS011;2153;47.744;10.580;2022-11-21T07:28:03;9.03;;;0.90;;
4278;SDS011;2153;47.744;10.580;2022-11-21T07:30:31;9.20;;;0.80;;
4278;SDS011;2153;47.744;10.580;2022-11-21T07:33:00;10.80;;;0.80;;
4278;SDS011;2153;47.744;10.580;2022-11-21T07:35:29;9.60;;;0.80;;
4278;SDS011;2153;47.744;10.580;2022-11-21T07:37:56;9.33;;;0.90;;
4278;SDS011;2153;47.744;10.580;2022-11-21T07:40:23;9.77;;;1.00;;
4278;SDS011;2153;47.744;10.580;2022-11-21T07:42:50;11.10;;;1.00;;
4278;SDS011;2153;47.744;10.580;2022-11-21T07:45:17;12.03;;;1.00;;
4278;SDS011;2153;47.744;10.580;2022-11-21T07:47:44;9.10;;;0.87;;
4278;SDS011;2153;47.744;10.580;2022-11-21T07:50:13;14.60;;;1.00;;
4278;SDS011;2153;47.744;10.580;2022-11-21T07:52:39;8.63;;;0.90;;
4278;SDS011;2153;47.744;10.580;2022-11-21T07:55:07;9.73;;;1.07;;
4278;SDS011;2153;47.744;10.580;2022-11-21T07:57:34;14.87;;;3.20;;
4278;SDS011;2153;47.744;10.580;2022-11-21T08:00:01;12.63;;;2.00;;
4278;SDS011;2153;47.744;10.580;2022-11-21T08:02:28;14.27;;;2.50;;
4278;SDS011;2153;47.744;10.580;2022-11-21T08:04:55;10.60;;;1.63;;
4278;SDS011;2153;47.744;10.580;2022-11-21T08:07:23;11.37;;;2.27;;
4278;SDS011;2153;47.744;10.580;2022-11-21T08:09:50;11.90;;;2.50;;
4278;SDS011;2153;47.744;10.580;2022-11-21T08:12:17;12.17;;;2.13;;
4278;SDS011;2153;47.744;10.580;2022-11-21T08:14:44;16.77;;;2.00;;
4278;SDS011;2153;47.744;10.580;2022-11-21T08:17:10;13.30;;;1.80;;
4278;SDS011;2153;47.744;10.580;2022-11-21T08:19:38;9.90;;;1.33;;
4278;SDS011;2153;47.744;10.580;2022-11-21T08:22:05;12.00;;;1.90;;
4278;SDS011;2153;47.744;10.580;2022-11-21T08:24:33;13.80;;;2.33;;
4278;SDS011;2153;47.744;10.580;2022-11-21T08:26:59;11.47;;;2.33;;
4278;SDS011;2153;47.744;10.580;2022-11-21T08:29:26;10.70;;;2.00;;
4278;SDS011;2153;47.744;10.580;2022-11-21T08:31:53;12.33;;;1.83;;
4278;SDS011;2153;47.744;10.580;2022-11-21T08:34:20;11.07;;;2.00;;
4278;SDS011;2153;47.744;10.580;2022-11-21T08:36:47;12.60;;;2.00;;
4278;SDS011;2153;47.744;10.580;2022-11-21T08:39:14;10.80;;;1.60;;
4278;SDS011;2153;47.744;10.580;2022-11-21T08:41:42;12.03;;;2.10;;
4278;SDS011;2153;47.744;10.580;2022-11-21T08:44:26;14.83;;;2.20;;
4278;SDS011;2153;47.744;10.580;2022-11-21T08:46:54;10.60;;;1.60;;
4278;SDS011;2153;47.744;10.580;2022-11-21T08:49:20;10.10;;;1.30;;
4278;SDS011;2153;47.744;10.580;2022-11-21T08:51:49;11.27;;;1.73;;
4278;SDS011;2153;47.744;10.580;2022-11-21T08:54:16;12.80;;;1.53;;
4278;SDS011;2153;47.744;10.580;2022-11-21T08:56:44;11.47;;;2.13;;
4278;SDS011;2153;47.744;10.580;2022-11-21T08:59:11;10.70;;;1.80;;
4278;SDS011;2153;47.744;10.580;2022-11-21T09:01:38;9.73;;;1.40;;
4278;SDS011;2153;47.744;10.580;2022-11-21T09:04:05;9.90;;;1.17;;
4278;SDS011;2153;47.744;10.580;2022-11-21T09:06:32;10.23;;;2.00;;
4278;SDS011;2153;47.744;10.580;2022-11-21T09:08:59;10.50;;;1.97;;
4278;SDS011;2153;47.744;10.580;2022-11-21T09:11:26;10.20;;;1.60;;
4278;SDS011;2153;47.744;10.580;2022-11-21T09:13:54;10.10;;;1.50;;
4278;SDS011;2153;47.744;10.580;2022-11-21T09:16:38;11.97;;;2.93;;
4278;SDS011;2153;47.744;10.580;2022-11-21T09:19:22;11.70;;;2.23;;
4278;SDS011;2153;47.744;10.580;2022-11-21T09:21:51;9.80;;;1.20;;
4278;SDS011;2153;47.744;10.580;2022-11-21T09:24:18;11.73;;;2.00;;
4278;SDS011;2153;47.744;10.580;2022-11-21T09:26:45;11.80;;;1.93;;
4278;SDS011;2153;47.744;10.580;2022-11-21T09:29:13;11.20;;;1.47;;
4278;SDS011;2153;47.744;10.580;2022-11-21T09:31:40;8.90;;;0.83;;
4278;SDS011;2153;47.744;10.580;2022-11-21T09:34:07;9.40;;;1.00;;
4278;SDS011;2153;47.744;10.580;2022-11-21T09:36:34;12.03;;;2.60;;
4278;SDS011;2153;47.744;10.580;2022-11-21T09:39:01;16.10;;;3.90;;
4278;SDS011;2153;47.744;10.580;2022-11-21T09:41:30;17.70;;;4.13;;
4278;SDS011;2153;47.744;10.580;2022-11-21T09:44:21;20.43;;;3.10;;
4278;SDS011;2153;47.744;10.580;2022-11-21T09:47:07;10.17;;;1.50;;
4278;SDS011;2153;47.744;10.580;2022-11-21T09:49:48;10.50;;;1.40;;
4278;SDS011;2153;47.744;10.580;2022-11-21T09:52:20;9.43;;;0.80;;
4278;SDS011;2153;47.744;10.580;2022-11-21T09:54:51;9.27;;;0.70;;
4278;SDS011;2153;47.744;10.580;2022-11-21T09:57:21;9.30;;;0.83;;
4278;SDS011;2153;47.744;10.580;2022-11-21T09:59:52;9.40;;;0.80;;
4278;SDS011;2153;47.744;10.580;2022-11-21T10:02:19;9.70;;;1.10;;
4278;SDS011;2153;47.744;10.580;2022-11-21T10:04:48;13.00;;;2.27;;
4278;SDS011;2153;47.744;10.580;2022-11-21T10:07:19;9.90;;;1.43;;
4278;SDS011;2153;47.744;10.580;2022-11-21T10:09:56;9.90;;;1.20;;
4278;SDS011;2153;47.744;10.580;2022-11-21T10:12:31;10.70;;;1.00;;
4278;SDS011;2153;47.744;10.580;2022-11-21T10:15:09;10.90;;;1.50;;
4278;SDS011;2153;47.744;10.580;2022-11-21T10:17:59;10.53;;;1.30;;
4278;SDS011;2153;47.744;10.580;2022-11-21T10:20:40;12.17;;;1.73;;
4278;SDS011;2153;47.744;10.580;2022-11-21T10:23:23;11.90;;;1.50;;
4278;SDS011;2153;47.744;10.580;2022-11-21T10:26:02;10.10;;;1.70;;
4278;SDS011;2153;47.744;10.580;2022-11-21T10:28:40;14.67;;;1.90;;
4278;SDS011;2153;47.744;10.580;2022-11-21T10:31:13;14.47;;;2.20;;
4278;SDS011;2153;47.744;10.580;2022-11-21T10:33:40;10.43;;;2.03;;
4278;SDS011;2153;47.744;10.580;2022-11-21T10:36:11;10.87;;;2.10;;
4278;SDS011;2153;47.744;10.580;2022-11-21T10:38:44;10.87;;;2.00;;
4278;SDS011;2153;47.744;10.580;2022-11-21T10:41:16;11.23;;;1.60;;
4278;SDS011;2153;47.744;10.580;2022-11-21T10:43:49;11.70;;;1.90;;
4278;SDS011;2153;47.744;10.580;2022-11-21T10:46:40;14.03;;;1.80;;
4278;SDS011;2153;47.744;10.580;2022-11-21T10:49:20;11.57;;;1.80;;
4278;SDS011;2153;47.744;10.580;2022-11-21T10:51:48;12.03;;;2.00;;
4278;SDS011;2153;47.744;10.580;2022-11-21T10:54:18;11.50;;;1.90;;
4278;SDS011;2153;47.744;10.580;2022-11-21T10:57:01;11.30;;;1.90;;
4278;SDS011;2153;47.744;10.580;2022-11-21T10:59:33;15.30;;;1.60;;
4278;SDS011;2153;47.744;10.580;2022-11-21T11:02:09;10.20;;;1.30;;
4278;SDS011;2153;47.744;10.580;2022-11-21T11:04:47;10.40;;;1.40;;
4278;SDS011;2153;47.744;10.580;2022-11-21T11:07:21;13.13;;;1.57;;
4278;SDS011;2153;47.744;10.580;2022-11-21T11:09:49;11.77;;;1.80;;
4278;SDS011;2153;47.744;10.580;2022-11-21T11:12:21;12.57;;;2.10;;
4278;SDS011;2153;47.744;10.580;2022-11-21T11:15:15;10.03;;;1.50;;
4278;SDS011;2153;47.744;10.580;2022-11-21T11:17:54;11.77;;;1.53;;
4278;SDS011;2153;47.744;10.580;2022-11-21T11:20:30;11.40;;;1.60;;
4278;SDS011;2153;47.744;10.580;2022-11-21T11:23:14;10.17;;;1.40;;
4278;SDS011;2153;47.744;10.580;2022-11-21T11:25:52;10.70;;;1.70;;
4278;SDS011;2153;47.744;10.580;2022-11-21T11:28:19;11.37;;;1.90;;
4278;SDS011;2153;47.744;10.580;2022-11-21T11:30:48;12.50;;;1.77;;
4278;SDS011;2153;47.744;10.580;2022-11-21T11:33:30;17.00;;;1.87;;
4278;SDS011;2153;47.744;10.580;2022-11-21T11:36:04;11.10;;;1.90;;
4278;SDS011;2153;47.744;10.580;2022-11-21T11:38:39;11.53;;;1.70;;
4278;SDS011;2153;47.744;10.580;2022-11-21T11:41:11;11.93;;;1.57;;
4278;SDS011;2153;47.744;10.580;2022-11-21T11:43:46;11.57;;;2.13;;
4278;SDS011;2153;47.744;10.580;2022-11-21T11:46:42;11.13;;;1.67;;
4278;SDS011;2153;47.744;10.580;2022-11-21T11:49:34;11.97;;;1.93;;
4278;SDS011;2153;47.744;10.580;2022-11-21T11:52:20;15.67;;;2.10;;
4278;SDS011;2153;47.744;10.580;2022-11-21T11:54:50;13.40;;;2.03;;
4278;SDS011;2153;47.744;10.580;2022-11-21T11:57:21;12.20;;;1.97;;
4278;SDS011;2153;47.744;10.580;2022-11-21T11:59:49;14.47;;;1.90;;
4278;SDS011;2153;47.744;10.580;2022-11-21T12:02:28;13.77;;;2.47;;
4278;SDS011;2153;47.744;10.580;2022-11-21T12:05:05;15.53;;;2.80;;
4278;SDS011;2153;47.744;10.580;2022-11-21T12:07:37;13.43;;;2.57;;
4278;SDS011;2153;47.744;10.580;2022-11-21T12:10:10;19.70;;;2.33;;
4278;SDS011;2153;47.744;10.580;2022-11-21T12:12:42;14.40;;;1.83;;
4278;SDS011;2153;47.744;10.580;2022-11-21T12:15:14;11.70;;;2.10;;
4278;SDS011;2153;47.744;10.580;2022-11-21T12:18:06;14.17;;;2.40;;
4278;SDS011;2153;47.744;10.580;2022-11-21T12:20:44;13.97;;;2.90;;
4278;SDS011;2153;47.744;10.580;2022-11-21T12:23:18;15.63;;;2.30;;
4278;SDS011;2153;47.744;10.580;2022-11-21T12:25:51;13.60;;;2.30;;
4278;SDS011;2153;47.744;10.580;2022-11-21T12:28:24;11.60;;;1.77;;
4278;SDS011;2153;47.744;10.580;2022-11-21T12:31:01;11.80;;;1.63;;
4278;SDS011;2153;47.744;10.580;2022-11-21T12:33:34;13.23;;;1.70;;
4278;SDS011;2153;47.744;10.580;2022-11-21T12:36:24;12.73;;;1.80;;
4278;SDS011;2153;47.744;10.580;2022-11-21T12:39:03;12.87;;;1.70;;
4278;SDS011;2153;47.744;10.580;2022-11-21T12:41:42;12.83;;;2.33;;
4278;SDS011;2153;47.744;10.580;2022-11-21T12:44:30;13.30;;;2.00;;
4278;SDS011;2153;47.744;10.580;2022-11-21T12:47:12;13.03;;;2.00;;
4278;SDS011;2153;47.744;10.580;2022-11-21T12:49:49;12.70;;;1.73;;
4278;SDS011;2153;47.744;10.580;2022-11-21T12:52:43;23.40;;;2.30;;
4278;SDS011;2153;47.744;10.580;2022-11-21T12:55:34;14.83;;;2.40;;
4278;SDS011;2153;47.744;10.580;2022-11-21T12:58:15;13.60;;;2.80;;
4278;SDS011;2153;47.744;10.580;2022-11-21T13:00:59;15.60;;;1.90;;
4278;SDS011;2153;47.744;10.580;2022-11-21T13:03:42;13.40;;;2.40;;
4278;SDS011;2153;47.744;10.580;2022-11-21T13:06:16;14.40;;;3.10;;
4278;SDS011;2153;47.744;10.580;2022-11-21T13:08:48;15.33;;;3.57;;
4278;SDS011;2153;47.744;10.580;2022-11-21T13:11:20;16.13;;;4.33;;
4278;SDS011;2153;47.744;10.580;2022-11-21T13:14:14;15.93;;;4.60;;
4278;SDS011;2153;47.744;10.580;2022-11-21T13:16:49;15.10;;;3.93;;
4278;SDS011;2153;47.744;10.580;2022-11-21T13:19:34;17.50;;;3.43;;
4278;SDS011;2153;47.744;10.580;2022-11-21T13:22:06;14.73;;;3.17;;
4278;SDS011;2153;47.744;10.580;2022-11-21T13:25:10;18.83;;;4.30;;
4278;SDS011;2153;47.744;10.580;2022-11-21T13:27:38;15.93;;;4.27;;
4278;SDS011;2153;47.744;10.580;2022-11-21T13:30:16;20.40;;;5.47;;
4278;SDS011;2153;47.744;10.580;2022-11-21T13:32:46;14.20;;;2.40;;
4278;SDS011;2153;47.744;10.580;2022-11-21T13:38:29;15.47;;;2.83;;
4278;SDS011;2153;47.744;10.580;2022-11-21T13:40:57;12.47;;;2.27;;
4278;SDS011;2153;47.744;10.580;2022-11-21T13:43:41;14.77;;;3.00;;
4278;SDS011;2153;47.744;10.580;2022-11-21T13:46:09;13.00;;;2.83;;
4278;SDS011;2153;47.744;10.580;2022-11-21T13:48:42;13.47;;;2.30;;
4278;SDS011;2153;47.744;10.580;2022-11-21T13:51:25;16.63;;;3.80;;
4278;SDS011;2153;47.744;10.580;2022-11-21T13:54:28;20.47;;;3.73;;
4278;SDS011;2153;47.744;10.580;2022-11-21T13:57:33;17.60;;;2.80;;
4278;SDS011;2153;47.744;10.580;2022-11-21T14:00:27;14.33;;;1.80;;
4278;SDS011;2153;47.744;10.580;2022-11-21T14:06:12;14.10;;;4.03;;
4278;SDS011;2153;47.744;10.580;2022-11-21T14:09:04;15.17;;;2.60;;
4278;SDS011;2153;47.744;10.580;2022-11-21T14:11:43;12.60;;;2.07;;
4278;SDS011;2153;47.744;10.580;2022-11-21T14:14:23;13.53;;;2.10;;
4278;SDS011;2153;47.744;10.580;2022-11-21T14:16:52;11.63;;;1.60;;
4278;SDS011;2153;47.744;10.580;2022-11-21T14:19:26;22.23;;;4.00;;
4278;SDS011;2153;47.744;10.580;2022-11-21T14:21:56;17.03;;;3.53;;
4278;SDS011;2153;47.744;10.580;2022-11-21T14:24:24;14.20;;;2.63;;
4278;SDS011;2153;47.744;10.580;2022-11-21T14:26:52;18.03;;;3.60;;
4278;SDS011;2153;47.744;10.580;2022-11-21T14:29:26;12.10;;;2.60;;
4278;SDS011;2153;47.744;10.580;2022-11-21T14:31:53;12.03;;;2.40;;
4278;SDS011;2153;47.744;10.580;2022-11-21T14:34:24;14.97;;;2.50;;
4278;SDS011;2153;47.744;10.580;2022-11-21T14:36:52;13.10;;;2.90;;
4278;SDS011;2153;47.744;10.580;2022-11-21T14:39:21;16.30;;;3.90;;
4278;SDS011;2153;47.744;10.580;2022-11-21T14:41:51;18.73;;;2.97;;
4278;SDS011;2153;47.744;10.580;2022-11-21T14:44:21;10.57;;;1.70;;
4278;SDS011;2153;47.744;10.580;2022-11-21T14:46:50;15.27;;;2.43;;
4278;SDS011;2153;47.744;10.580;2022-11-21T14:49:27;14.03;;;2.17;;
4278;SDS011;2153;47.744;10.580;2022-11-21T14:52:05;13.93;;;2.17;;
4278;SDS011;2153;47.744;10.580;2022-11-21T14:54:42;13.63;;;2.30;;
4278;SDS011;2153;47.744;10.580;2022-11-21T14:57:16;11.30;;;1.83;;
4278;SDS011;2153;47.744;10.580;2022-11-21T14:59:46;13.00;;;2.10;;
4278;SDS011;2153;47.744;10.580;2022-11-21T15:02:15;15.30;;;2.87;;
4278;SDS011;2153;47.744;10.580;2022-11-21T15:04:44;11.97;;;1.80;;
4278;SDS011;2153;47.744;10.580;2022-11-21T15:07:19;14.90;;;2.63;;
4278;SDS011;2153;47.744;10.580;2022-11-21T15:09:47;13.80;;;2.47;;
4278;SDS011;2153;47.744;10.580;2022-11-21T15:12:17;16.93;;;2.10;;
4278;SDS011;2153;47.744;10.580;2022-11-21T15:14:53;13.00;;;2.73;;
4278;SDS011;2153;47.744;10.580;2022-11-21T15:17:26;16.17;;;3.20;;
4278;SDS011;2153;47.744;10.580;2022-11-21T15:20:05;15.10;;;3.13;;